sensor_id;sensor_type;location;lat;lon;timestamp;P1;durP1;ratioP1;P2;durP2;ratioP2
66919;SDS011;53831;52.090;17.026;2022-12-29T00:00:37;12.45;;;6.55;;
66919;SDS011;53831;52.090;17.026;2022-12-29T00:01:37;20.00;;;7.80;;
66919;SDS011;53831;52.090;17.026;2022-12-29T00:02:38;14.70;;;6.45;;
66919;SDS011;53831;52.090;17.026;2022-12-29T00:03:39;16.00;;;6.13;;
66919;SDS011;53831;52.090;17.026;2022-12-29T00:04:39;14.85;;;6.50;;
66919;SDS011;53831;52.090;17.026;2022-12-29T00:05:40;13.02;;;6.13;;
66919;SDS011;53831;52.090;17.026;2022-12-29T00:06:41;11.80;;;5.30;;
66919;SDS011;53831;52.090;17.026;2022-12-29T00:07:42;11.00;;;5.20;;
66919;SDS011;53831;52.090;17.026;2022-12-29T00:08:43;10.18;;;5.50;;
66919;SDS011;53831;52.090;17.026;2022-12-29T00:09:43;14.88;;;5.65;;
66919;SDS011;53831;52.090;17.026;2022-12-29T00:10:44;13.48;;;5.57;;
66919;SDS011;53831;52.090;17.026;2022-12-29T00:11:45;11.10;;;5.50;;
66919;SDS011;53831;52.090;17.026;2022-12-29T00:12:46;12.00;;;6.13;;
66919;SDS011;53831;52.090;17.026;2022-12-29T00:14:05;13.18;;;5.75;;
66919;SDS011;53831;52.090;17.026;2022-12-29T00:15:25;15.02;;;5.80;;
66919;SDS011;53831;52.090;17.026;2022-12-29T00:16:39;14.73;;;6.43;;
66919;SDS011;53831;52.090;17.026;2022-12-29T00:17:42;13.25;;;6.25;;
66919;SDS011;53831;52.090;17.026;2022-12-29T00:18:43;14.82;;;6.53;;
66919;SDS011;53831;52.090;17.026;2022-12-29T00:19:43;18.85;;;7.20;;
66919;SDS011;53831;52.090;17.026;2022-12-29T00:21:03;17.40;;;6.65;;
66919;SDS011;53831;52.090;17.026;2022-12-29T00:22:22;15.05;;;6.22;;
66919;SDS011;53831;52.090;17.026;2022-12-29T00:23:42;15.48;;;6.10;;
66919;SDS011;53831;52.090;17.026;2022-12-29T00:25:02;15.63;;;6.30;;
66919;SDS011;53831;52.090;17.026;2022-12-29T00:26:22;14.05;;;6.10;;
66919;SDS011;53831;52.090;17.026;2022-12-29T00:27:41;14.02;;;6.10;;
66919;SDS011;53831;52.090;17.026;2022-12-29T00:29:01;16.63;;;6.13;;
66919;SDS011;53831;52.090;17.026;2022-12-29T00:30:37;14.13;;;5.47;;
66919;SDS011;53831;52.090;17.026;2022-12-29T00:31:56;11.63;;;5.35;;
66919;SDS011;53831;52.090;17.026;2022-12-29T00:33:17;14.25;;;5.47;;
66919;SDS011;53831;52.090;17.026;2022-12-29T00:34:37;15.10;;;5.88;;
66919;SDS011;53831;52.090;17.026;2022-12-29T00:35:58;12.80;;;5.72;;
66919;SDS011;53831;52.090;17.026;2022-12-29T00:36:59;12.02;;;5.45;;
66919;SDS011;53831;52.090;17.026;2022-12-29T00:38:01;13.63;;;6.28;;
66919;SDS011;53831;52.090;17.026;2022-12-29T00:39:23;13.82;;;6.03;;
66919;SDS011;53831;52.090;17.026;2022-12-29T00:40:42;15.35;;;6.68;;
66919;SDS011;53831;52.090;17.026;2022-12-29T00:42:05;13.40;;;6.28;;
66919;SDS011;53831;52.090;17.026;2022-12-29T00:43:26;13.00;;;5.70;;
66919;SDS011;53831;52.090;17.026;2022-12-29T00:44:46;12.60;;;5.65;;
66919;SDS011;53831;52.090;17.026;2022-12-29T00:45:47;13.90;;;5.90;;
66919;SDS011;53831;52.090;17.026;2022-12-29T00:46:48;11.27;;;5.57;;
66919;SDS011;53831;52.090;17.026;2022-12-29T00:47:49;11.18;;;5.35;;
66919;SDS011;53831;52.090;17.026;2022-12-29T00:48:49;13.27;;;5.65;;
66919;SDS011;53831;52.090;17.026;2022-12-29T00:50:08;9.25;;;4.90;;
66919;SDS011;53831;52.090;17.026;2022-12-29T00:51:09;13.23;;;5.72;;
66919;SDS011;53831;52.090;17.026;2022-12-29T00:52:10;11.40;;;5.40;;
66919;SDS011;53831;52.090;17.026;2022-12-29T00:53:12;12.75;;;5.70;;
66919;SDS011;53831;52.090;17.026;2022-12-29T00:54:13;14.27;;;5.35;;
66919;SDS011;53831;52.090;17.026;2022-12-29T00:55:14;12.88;;;5.32;;
66919;SDS011;53831;52.090;17.026;2022-12-29T00:56:15;13.52;;;5.90;;
66919;SDS011;53831;52.090;17.026;2022-12-29T00:57:16;13.32;;;5.68;;
66919;SDS011;53831;52.090;17.026;2022-12-29T00:58:16;12.68;;;5.28;;
66919;SDS011;53831;52.090;17.026;2022-12-29T00:59:17;11.43;;;5.45;;
66919;SDS011;53831;52.090;17.026;2022-12-29T01:00:19;12.95;;;5.68;;
66919;SDS011;53831;52.090;17.026;2022-12-29T01:01:19;12.85;;;5.43;;
66919;SDS011;53831;52.090;17.026;2022-12-29T01:02:20;10.60;;;5.10;;
66919;SDS011;53831;52.090;17.026;2022-12-29T01:03:21;10.93;;;5.25;;
66919;SDS011;53831;52.090;17.026;2022-12-29T01:04:22;13.40;;;5.28;;
66919;SDS011;53831;52.090;17.026;2022-12-29T01:05:24;12.93;;;5.18;;
66919;SDS011;53831;52.090;17.026;2022-12-29T01:06:24;11.63;;;5.22;;
66919;SDS011;53831;52.090;17.026;2022-12-29T01:07:25;12.13;;;5.60;;
66919;SDS011;53831;52.090;17.026;2022-12-29T01:08:27;10.38;;;5.22;;
66919;SDS011;53831;52.090;17.026;2022-12-29T01:09:28;10.15;;;5.32;;
66919;SDS011;53831;52.090;17.026;2022-12-29T01:10:57;11.57;;;5.07;;
66919;SDS011;53831;52.090;17.026;2022-12-29T01:11:58;11.07;;;5.32;;
66919;SDS011;53831;52.090;17.026;2022-12-29T01:12:59;10.88;;;5.47;;
66919;SDS011;53831;52.090;17.026;2022-12-29T01:13:59;14.20;;;5.53;;
66919;SDS011;53831;52.090;17.026;2022-12-29T01:15:00;12.13;;;4.93;;
66919;SDS011;53831;52.090;17.026;2022-12-29T01:16:01;11.93;;;5.43;;
66919;SDS011;53831;52.090;17.026;2022-12-29T01:17:01;9.57;;;4.70;;
66919;SDS011;53831;52.090;17.026;2022-12-29T01:18:02;10.88;;;5.10;;
66919;SDS011;53831;52.090;17.026;2022-12-29T01:19:04;10.85;;;5.43;;
66919;SDS011;53831;52.090;17.026;2022-12-29T01:20:05;12.32;;;5.20;;
66919;SDS011;53831;52.090;17.026;2022-12-29T01:21:06;10.35;;;5.32;;
66919;SDS011;53831;52.090;17.026;2022-12-29T01:22:06;10.88;;;4.82;;
66919;SDS011;53831;52.090;17.026;2022-12-29T01:23:07;13.82;;;5.32;;
66919;SDS011;53831;52.090;17.026;2022-12-29T01:24:07;9.65;;;4.97;;
66919;SDS011;53831;52.090;17.026;2022-12-29T01:25:08;9.80;;;5.05;;
66919;SDS011;53831;52.090;17.026;2022-12-29T01:26:12;9.40;;;4.88;;
66919;SDS011;53831;52.090;17.026;2022-12-29T01:27:14;12.63;;;5.25;;
66919;SDS011;53831;52.090;17.026;2022-12-29T01:28:15;12.75;;;5.20;;
66919;SDS011;53831;52.090;17.026;2022-12-29T01:29:16;10.77;;;5.07;;
66919;SDS011;53831;52.090;17.026;2022-12-29T01:30:19;10.20;;;5.28;;
66919;SDS011;53831;52.090;17.026;2022-12-29T01:31:19;10.10;;;5.10;;
66919;SDS011;53831;52.090;17.026;2022-12-29T01:32:20;11.30;;;5.30;;
66919;SDS011;53831;52.090;17.026;2022-12-29T01:33:21;14.73;;;5.35;;
66919;SDS011;53831;52.090;17.026;2022-12-29T01:34:21;9.10;;;5.15;;
66919;SDS011;53831;52.090;17.026;2022-12-29T01:35:22;12.60;;;4.93;;
66919;SDS011;53831;52.090;17.026;2022-12-29T01:36:23;11.57;;;5.15;;
66919;SDS011;53831;52.090;17.026;2022-12-29T01:37:24;11.32;;;5.05;;
66919;SDS011;53831;52.090;17.026;2022-12-29T01:38:25;12.10;;;5.18;;
66919;SDS011;53831;52.090;17.026;2022-12-29T01:39:26;11.32;;;5.22;;
66919;SDS011;53831;52.090;17.026;2022-12-29T01:40:27;11.85;;;5.05;;
66919;SDS011;53831;52.090;17.026;2022-12-29T01:42:29;9.43;;;4.47;;
66919;SDS011;53831;52.090;17.026;2022-12-29T01:43:39;10.02;;;4.65;;
66919;SDS011;53831;52.090;17.026;2022-12-29T01:46:00;11.23;;;5.05;;
66919;SDS011;53831;52.090;17.026;2022-12-29T01:47:00;11.45;;;5.20;;
66919;SDS011;53831;52.090;17.026;2022-12-29T01:48:01;10.82;;;4.85;;
66919;SDS011;53831;52.090;17.026;2022-12-29T01:50:09;12.18;;;4.57;;
66919;SDS011;53831;52.090;17.026;2022-12-29T01:51:10;10.57;;;4.50;;
66919;SDS011;53831;52.090;17.026;2022-12-29T01:52:11;11.10;;;4.85;;
66919;SDS011;53831;52.090;17.026;2022-12-29T01:53:13;9.68;;;4.57;;
66919;SDS011;53831;52.090;17.026;2022-12-29T01:54:25;11.02;;;4.97;;
66919;SDS011;53831;52.090;17.026;2022-12-29T01:55:35;10.25;;;4.95;;
66919;SDS011;53831;52.090;17.026;2022-12-29T01:56:45;12.82;;;5.05;;
66919;SDS011;53831;52.090;17.026;2022-12-29T01:57:48;11.65;;;5.10;;
66919;SDS011;53831;52.090;17.026;2022-12-29T01:58:56;12.25;;;4.45;;
66919;SDS011;53831;52.090;17.026;2022-12-29T02:00:08;10.07;;;4.75;;
66919;SDS011;53831;52.090;17.026;2022-12-29T02:01:14;11.30;;;5.13;;
66919;SDS011;53831;52.090;17.026;2022-12-29T02:02:18;8.82;;;4.60;;
66919;SDS011;53831;52.090;17.026;2022-12-29T02:03:19;8.48;;;4.25;;
66919;SDS011;53831;52.090;17.026;2022-12-29T02:04:23;8.55;;;4.43;;
66919;SDS011;53831;52.090;17.026;2022-12-29T02:06:58;9.52;;;4.68;;
66919;SDS011;53831;52.090;17.026;2022-12-29T02:08:03;8.48;;;4.47;;
66919;SDS011;53831;52.090;17.026;2022-12-29T02:09:04;10.50;;;4.80;;
66919;SDS011;53831;52.090;17.026;2022-12-29T02:10:04;10.27;;;4.57;;
66919;SDS011;53831;52.090;17.026;2022-12-29T02:11:05;11.48;;;4.45;;
66919;SDS011;53831;52.090;17.026;2022-12-29T02:12:08;7.70;;;4.63;;
66919;SDS011;53831;52.090;17.026;2022-12-29T02:13:10;8.70;;;4.43;;
66919;SDS011;53831;52.090;17.026;2022-12-29T02:14:11;10.70;;;4.05;;
66919;SDS011;53831;52.090;17.026;2022-12-29T02:15:13;9.30;;;4.70;;
66919;SDS011;53831;52.090;17.026;2022-12-29T02:17:53;9.57;;;4.82;;
66919;SDS011;53831;52.090;17.026;2022-12-29T02:21:15;8.80;;;4.35;;
66919;SDS011;53831;52.090;17.026;2022-12-29T02:25:10;7.97;;;4.20;;
66919;SDS011;53831;52.090;17.026;2022-12-29T02:26:28;8.60;;;4.18;;
66919;SDS011;53831;52.090;17.026;2022-12-29T02:27:53;8.52;;;4.20;;
66919;SDS011;53831;52.090;17.026;2022-12-29T02:30:37;8.10;;;3.90;;
66919;SDS011;53831;52.090;17.026;2022-12-29T02:34:10;9.60;;;4.20;;
66919;SDS011;53831;52.090;17.026;2022-12-29T02:36:46;9.70;;;4.43;;
66919;SDS011;53831;52.090;17.026;2022-12-29T02:38:12;8.18;;;4.30;;
66919;SDS011;53831;52.090;17.026;2022-12-29T02:39:41;9.00;;;4.22;;
66919;SDS011;53831;52.090;17.026;2022-12-29T02:41:01;8.25;;;4.55;;
66919;SDS011;53831;52.090;17.026;2022-12-29T02:43:30;8.00;;;3.67;;
66919;SDS011;53831;52.090;17.026;2022-12-29T02:44:59;8.40;;;4.20;;
66919;SDS011;53831;52.090;17.026;2022-12-29T02:46:10;10.00;;;4.30;;
66919;SDS011;53831;52.090;17.026;2022-12-29T02:47:35;9.55;;;4.05;;
66919;SDS011;53831;52.090;17.026;2022-12-29T02:48:46;11.82;;;4.10;;
66919;SDS011;53831;52.090;17.026;2022-12-29T02:49:57;8.07;;;3.60;;
66919;SDS011;53831;52.090;17.026;2022-12-29T02:51:03;7.93;;;4.18;;
66919;SDS011;53831;52.090;17.026;2022-12-29T02:52:19;8.82;;;4.22;;
66919;SDS011;53831;52.090;17.026;2022-12-29T02:53:26;8.93;;;4.35;;
66919;SDS011;53831;52.090;17.026;2022-12-29T02:54:49;9.60;;;3.42;;
66919;SDS011;53831;52.090;17.026;2022-12-29T02:55:50;11.40;;;4.05;;
66919;SDS011;53831;52.090;17.026;2022-12-29T02:56:52;8.27;;;3.90;;
66919;SDS011;53831;52.090;17.026;2022-12-29T02:59:09;8.57;;;4.13;;
66919;SDS011;53831;52.090;17.026;2022-12-29T03:00:15;11.25;;;3.83;;
66919;SDS011;53831;52.090;17.026;2022-12-29T03:01:26;7.93;;;3.78;;
66919;SDS011;53831;52.090;17.026;2022-12-29T03:03:07;7.43;;;3.85;;
66919;SDS011;53831;52.090;17.026;2022-12-29T03:07:05;11.63;;;4.22;;
66919;SDS011;53831;52.090;17.026;2022-12-29T03:09:00;7.53;;;3.83;;
66919;SDS011;53831;52.090;17.026;2022-12-29T03:09:36;8.55;;;3.55;;
66919;SDS011;53831;52.090;17.026;2022-12-29T03:11:10;7.70;;;3.72;;
66919;SDS011;53831;52.090;17.026;2022-12-29T03:12:34;10.63;;;4.20;;
66919;SDS011;53831;52.090;17.026;2022-12-29T03:14:01;7.45;;;3.90;;
66919;SDS011;53831;52.090;17.026;2022-12-29T03:15:43;9.15;;;4.07;;
66919;SDS011;53831;52.090;17.026;2022-12-29T03:17:06;7.88;;;4.05;;
66919;SDS011;53831;52.090;17.026;2022-12-29T03:18:23;8.60;;;4.03;;
66919;SDS011;53831;52.090;17.026;2022-12-29T03:19:51;9.00;;;3.88;;
66919;SDS011;53831;52.090;17.026;2022-12-29T03:20:58;8.85;;;3.95;;
66919;SDS011;53831;52.090;17.026;2022-12-29T03:22:05;8.38;;;4.05;;
66919;SDS011;53831;52.090;17.026;2022-12-29T03:23:32;9.55;;;3.92;;
66919;SDS011;53831;52.090;17.026;2022-12-29T03:24:40;7.35;;;4.05;;
66919;SDS011;53831;52.090;17.026;2022-12-29T03:25:48;8.98;;;3.70;;
66919;SDS011;53831;52.090;17.026;2022-12-29T03:26:56;9.75;;;3.97;;
66919;SDS011;53831;52.090;17.026;2022-12-29T03:28:02;7.72;;;3.70;;
66919;SDS011;53831;52.090;17.026;2022-12-29T03:29:12;9.10;;;4.18;;
66919;SDS011;53831;52.090;17.026;2022-12-29T03:30:17;7.80;;;3.70;;
66919;SDS011;53831;52.090;17.026;2022-12-29T03:32:22;9.15;;;4.20;;
66919;SDS011;53831;52.090;17.026;2022-12-29T03:33:28;6.50;;;3.83;;
66919;SDS011;53831;52.090;17.026;2022-12-29T03:34:33;8.82;;;3.75;;
66919;SDS011;53831;52.090;17.026;2022-12-29T03:35:36;7.13;;;3.63;;
66919;SDS011;53831;52.090;17.026;2022-12-29T03:36:46;8.48;;;3.90;;
66919;SDS011;53831;52.090;17.026;2022-12-29T03:38:13;7.80;;;3.45;;
66919;SDS011;53831;52.090;17.026;2022-12-29T03:39:15;9.65;;;4.07;;
66919;SDS011;53831;52.090;17.026;2022-12-29T03:40:19;6.65;;;3.38;;
66919;SDS011;53831;52.090;17.026;2022-12-29T03:41:23;9.48;;;3.83;;
66919;SDS011;53831;52.090;17.026;2022-12-29T03:42:32;7.60;;;3.90;;
66919;SDS011;53831;52.090;17.026;2022-12-29T03:43:35;10.07;;;4.30;;
66919;SDS011;53831;52.090;17.026;2022-12-29T03:44:37;8.65;;;3.75;;
66919;SDS011;53831;52.090;17.026;2022-12-29T03:45:39;8.98;;;4.03;;
66919;SDS011;53831;52.090;17.026;2022-12-29T03:46:41;7.90;;;3.92;;
66919;SDS011;53831;52.090;17.026;2022-12-29T03:47:41;6.88;;;3.22;;
66919;SDS011;53831;52.090;17.026;2022-12-29T03:48:42;9.32;;;3.78;;
66919;SDS011;53831;52.090;17.026;2022-12-29T03:49:43;7.28;;;3.67;;
66919;SDS011;53831;52.090;17.026;2022-12-29T03:50:45;7.55;;;3.65;;
66919;SDS011;53831;52.090;17.026;2022-12-29T03:51:46;6.50;;;3.50;;
66919;SDS011;53831;52.090;17.026;2022-12-29T03:52:47;8.48;;;3.83;;
66919;SDS011;53831;52.090;17.026;2022-12-29T03:53:47;10.13;;;4.30;;
66919;SDS011;53831;52.090;17.026;2022-12-29T03:54:48;7.88;;;4.15;;
66919;SDS011;53831;52.090;17.026;2022-12-29T03:55:49;7.75;;;3.65;;
66919;SDS011;53831;52.090;17.026;2022-12-29T03:56:50;7.10;;;3.75;;
66919;SDS011;53831;52.090;17.026;2022-12-29T03:57:57;7.47;;;3.72;;
66919;SDS011;53831;52.090;17.026;2022-12-29T03:59:12;8.27;;;3.92;;
66919;SDS011;53831;52.090;17.026;2022-12-29T04:00:14;8.82;;;3.85;;
66919;SDS011;53831;52.090;17.026;2022-12-29T04:01:15;10.05;;;3.50;;
66919;SDS011;53831;52.090;17.026;2022-12-29T04:02:17;8.90;;;3.83;;
66919;SDS011;53831;52.090;17.026;2022-12-29T04:03:18;7.72;;;3.53;;
66919;SDS011;53831;52.090;17.026;2022-12-29T04:04:18;6.25;;;3.33;;
66919;SDS011;53831;52.090;17.026;2022-12-29T04:05:21;7.55;;;3.50;;
66919;SDS011;53831;52.090;17.026;2022-12-29T04:06:24;9.02;;;3.90;;
66919;SDS011;53831;52.090;17.026;2022-12-29T04:07:32;8.27;;;3.75;;
66919;SDS011;53831;52.090;17.026;2022-12-29T04:08:32;8.10;;;3.22;;
66919;SDS011;53831;52.090;17.026;2022-12-29T04:09:33;7.78;;;3.70;;
66919;SDS011;53831;52.090;17.026;2022-12-29T04:10:35;8.18;;;3.72;;
66919;SDS011;53831;52.090;17.026;2022-12-29T04:11:38;7.50;;;3.60;;
66919;SDS011;53831;52.090;17.026;2022-12-29T04:12:40;7.72;;;3.20;;
66919;SDS011;53831;52.090;17.026;2022-12-29T04:13:42;9.77;;;3.47;;
66919;SDS011;53831;52.090;17.026;2022-12-29T04:14:46;7.88;;;3.58;;
66919;SDS011;53831;52.090;17.026;2022-12-29T04:15:47;6.65;;;3.22;;
66919;SDS011;53831;52.090;17.026;2022-12-29T04:16:48;6.30;;;3.20;;
66919;SDS011;53831;52.090;17.026;2022-12-29T04:17:48;8.30;;;3.80;;
66919;SDS011;53831;52.090;17.026;2022-12-29T04:18:49;6.72;;;3.22;;
66919;SDS011;53831;52.090;17.026;2022-12-29T04:19:50;6.65;;;3.30;;
66919;SDS011;53831;52.090;17.026;2022-12-29T04:20:51;8.30;;;3.42;;
66919;SDS011;53831;52.090;17.026;2022-12-29T04:22:03;7.38;;;3.28;;
66919;SDS011;53831;52.090;17.026;2022-12-29T04:23:04;9.95;;;3.58;;
66919;SDS011;53831;52.090;17.026;2022-12-29T04:24:07;9.10;;;3.15;;
66919;SDS011;53831;52.090;17.026;2022-12-29T04:25:12;5.68;;;3.25;;
66919;SDS011;53831;52.090;17.026;2022-12-29T04:26:13;6.35;;;3.00;;
66919;SDS011;53831;52.090;17.026;2022-12-29T04:27:24;6.45;;;2.90;;
66919;SDS011;53831;52.090;17.026;2022-12-29T04:28:54;6.85;;;3.22;;
66919;SDS011;53831;52.090;17.026;2022-12-29T04:30:07;6.55;;;3.08;;
66919;SDS011;53831;52.090;17.026;2022-12-29T04:31:22;8.20;;;3.35;;
66919;SDS011;53831;52.090;17.026;2022-12-29T04:32:23;6.72;;;3.30;;
66919;SDS011;53831;52.090;17.026;2022-12-29T04:33:27;8.10;;;3.08;;
66919;SDS011;53831;52.090;17.026;2022-12-29T04:34:27;7.72;;;3.20;;
66919;SDS011;53831;52.090;17.026;2022-12-29T04:35:28;7.10;;;3.35;;
66919;SDS011;53831;52.090;17.026;2022-12-29T04:36:29;5.88;;;3.13;;
66919;SDS011;53831;52.090;17.026;2022-12-29T04:37:29;7.03;;;3.22;;
66919;SDS011;53831;52.090;17.026;2022-12-29T04:38:31;6.38;;;3.00;;
66919;SDS011;53831;52.090;17.026;2022-12-29T04:39:34;6.80;;;3.20;;
66919;SDS011;53831;52.090;17.026;2022-12-29T04:40:34;8.23;;;3.17;;
66919;SDS011;53831;52.090;17.026;2022-12-29T04:41:35;8.00;;;3.55;;
66919;SDS011;53831;52.090;17.026;2022-12-29T04:42:37;6.47;;;2.72;;
66919;SDS011;53831;52.090;17.026;2022-12-29T04:43:37;8.00;;;3.00;;
66919;SDS011;53831;52.090;17.026;2022-12-29T04:44:49;8.95;;;3.05;;
66919;SDS011;53831;52.090;17.026;2022-12-29T04:46:09;5.82;;;2.72;;
66919;SDS011;53831;52.090;17.026;2022-12-29T04:47:30;7.38;;;2.75;;
66919;SDS011;53831;52.090;17.026;2022-12-29T04:48:56;6.60;;;2.90;;
66919;SDS011;53831;52.090;17.026;2022-12-29T04:50:23;6.88;;;2.75;;
66919;SDS011;53831;52.090;17.026;2022-12-29T04:51:28;6.13;;;2.72;;
66919;SDS011;53831;52.090;17.026;2022-12-29T04:52:29;6.57;;;3.25;;
66919;SDS011;53831;52.090;17.026;2022-12-29T04:53:30;5.45;;;2.72;;
66919;SDS011;53831;52.090;17.026;2022-12-29T04:54:32;5.75;;;2.70;;
66919;SDS011;53831;52.090;17.026;2022-12-29T04:55:42;6.38;;;3.00;;
66919;SDS011;53831;52.090;17.026;2022-12-29T04:56:42;6.45;;;2.88;;
66919;SDS011;53831;52.090;17.026;2022-12-29T04:57:44;7.32;;;3.10;;
66919;SDS011;53831;52.090;17.026;2022-12-29T04:58:48;7.88;;;3.15;;
66919;SDS011;53831;52.090;17.026;2022-12-29T04:59:49;6.13;;;2.67;;
66919;SDS011;53831;52.090;17.026;2022-12-29T05:00:50;6.40;;;2.72;;
66919;SDS011;53831;52.090;17.026;2022-12-29T05:01:53;6.32;;;3.22;;
66919;SDS011;53831;52.090;17.026;2022-12-29T05:02:54;7.97;;;3.00;;
66919;SDS011;53831;52.090;17.026;2022-12-29T05:03:55;5.80;;;3.03;;
66919;SDS011;53831;52.090;17.026;2022-12-29T05:04:56;6.60;;;3.15;;
66919;SDS011;53831;52.090;17.026;2022-12-29T05:05:57;6.93;;;3.30;;
66919;SDS011;53831;52.090;17.026;2022-12-29T05:06:58;8.70;;;3.13;;
66919;SDS011;53831;52.090;17.026;2022-12-29T05:07:59;8.02;;;3.20;;
66919;SDS011;53831;52.090;17.026;2022-12-29T05:09:01;6.65;;;3.15;;
66919;SDS011;53831;52.090;17.026;2022-12-29T05:10:02;8.15;;;3.17;;
66919;SDS011;53831;52.090;17.026;2022-12-29T05:11:04;6.95;;;3.30;;
66919;SDS011;53831;52.090;17.026;2022-12-29T05:12:05;7.85;;;3.17;;
66919;SDS011;53831;52.090;17.026;2022-12-29T05:13:07;10.18;;;3.80;;
66919;SDS011;53831;52.090;17.026;2022-12-29T05:14:08;9.82;;;3.63;;
66919;SDS011;53831;52.090;17.026;2022-12-29T05:17:12;8.03;;;3.73;;
66919;SDS011;53831;52.090;17.026;2022-12-29T05:18:12;7.05;;;3.28;;
66919;SDS011;53831;52.090;17.026;2022-12-29T05:19:16;7.30;;;3.20;;
66919;SDS011;53831;52.090;17.026;2022-12-29T05:20:17;7.30;;;3.65;;
66919;SDS011;53831;52.090;17.026;2022-12-29T05:22:18;7.17;;;3.20;;
66919;SDS011;53831;52.090;17.026;2022-12-29T05:23:19;8.13;;;3.40;;
66919;SDS011;53831;52.090;17.026;2022-12-29T05:24:26;8.32;;;3.40;;
66919;SDS011;53831;52.090;17.026;2022-12-29T05:25:30;7.82;;;3.20;;
66919;SDS011;53831;52.090;17.026;2022-12-29T05:26:44;9.30;;;3.13;;
66919;SDS011;53831;52.090;17.026;2022-12-29T05:28:02;7.15;;;3.10;;
66919;SDS011;53831;52.090;17.026;2022-12-29T05:29:19;7.88;;;3.30;;
66919;SDS011;53831;52.090;17.026;2022-12-29T05:30:20;7.00;;;3.20;;
66919;SDS011;53831;52.090;17.026;2022-12-29T05:31:21;11.75;;;3.47;;
66919;SDS011;53831;52.090;17.026;2022-12-29T05:33:23;9.23;;;3.97;;
66919;SDS011;53831;52.090;17.026;2022-12-29T05:34:24;7.78;;;3.10;;
66919;SDS011;53831;52.090;17.026;2022-12-29T05:35:25;7.65;;;3.53;;
66919;SDS011;53831;52.090;17.026;2022-12-29T05:36:26;8.18;;;3.05;;
66919;SDS011;53831;52.090;17.026;2022-12-29T05:37:31;7.20;;;3.60;;
66919;SDS011;53831;52.090;17.026;2022-12-29T05:38:32;7.85;;;3.22;;
66919;SDS011;53831;52.090;17.026;2022-12-29T05:39:32;8.13;;;3.50;;
66919;SDS011;53831;52.090;17.026;2022-12-29T05:40:35;6.45;;;3.03;;
66919;SDS011;53831;52.090;17.026;2022-12-29T05:41:40;7.40;;;3.60;;
66919;SDS011;53831;52.090;17.026;2022-12-29T05:43:19;8.18;;;3.40;;
66919;SDS011;53831;52.090;17.026;2022-12-29T05:44:47;8.40;;;3.28;;
66919;SDS011;53831;52.090;17.026;2022-12-29T05:46:19;7.47;;;3.08;;
66919;SDS011;53831;52.090;17.026;2022-12-29T05:47:52;7.90;;;3.05;;
66919;SDS011;53831;52.090;17.026;2022-12-29T05:49:11;7.68;;;3.38;;
66919;SDS011;53831;52.090;17.026;2022-12-29T05:50:26;8.93;;;3.63;;
66919;SDS011;53831;52.090;17.026;2022-12-29T05:51:42;8.95;;;3.60;;
66919;SDS011;53831;52.090;17.026;2022-12-29T05:52:42;8.38;;;3.60;;
66919;SDS011;53831;52.090;17.026;2022-12-29T05:53:43;9.55;;;3.95;;
66919;SDS011;53831;52.090;17.026;2022-12-29T05:54:44;9.27;;;3.45;;
66919;SDS011;53831;52.090;17.026;2022-12-29T05:55:48;7.03;;;3.10;;
66919;SDS011;53831;52.090;17.026;2022-12-29T05:56:49;7.93;;;3.30;;
66919;SDS011;53831;52.090;17.026;2022-12-29T05:57:49;8.05;;;3.60;;
66919;SDS011;53831;52.090;17.026;2022-12-29T05:59:51;12.53;;;5.27;;
66919;SDS011;53831;52.090;17.026;2022-12-29T06:00:52;10.45;;;4.32;;
66919;SDS011;53831;52.090;17.026;2022-12-29T06:01:53;10.57;;;3.83;;
66919;SDS011;53831;52.090;17.026;2022-12-29T06:02:53;7.95;;;3.75;;
66919;SDS011;53831;52.090;17.026;2022-12-29T06:03:54;7.97;;;3.70;;
66919;SDS011;53831;52.090;17.026;2022-12-29T06:04:55;6.85;;;3.22;;
66919;SDS011;53831;52.090;17.026;2022-12-29T06:05:56;7.95;;;3.45;;
66919;SDS011;53831;52.090;17.026;2022-12-29T06:06:57;6.70;;;3.45;;
66919;SDS011;53831;52.090;17.026;2022-12-29T06:08:10;7.45;;;3.30;;
66919;SDS011;53831;52.090;17.026;2022-12-29T06:09:10;6.57;;;3.35;;
66919;SDS011;53831;52.090;17.026;2022-12-29T06:10:11;5.72;;;3.08;;
66919;SDS011;53831;52.090;17.026;2022-12-29T06:11:18;8.35;;;3.50;;
66919;SDS011;53831;52.090;17.026;2022-12-29T06:12:24;8.75;;;3.47;;
66919;SDS011;53831;52.090;17.026;2022-12-29T06:13:27;7.57;;;3.60;;
66919;SDS011;53831;52.090;17.026;2022-12-29T06:15:29;7.27;;;3.07;;
66919;SDS011;53831;52.090;17.026;2022-12-29T06:16:29;7.55;;;3.60;;
66919;SDS011;53831;52.090;17.026;2022-12-29T06:17:33;9.45;;;3.80;;
66919;SDS011;53831;52.090;17.026;2022-12-29T06:18:34;8.75;;;3.58;;
66919;SDS011;53831;52.090;17.026;2022-12-29T06:19:34;7.28;;;3.70;;
66919;SDS011;53831;52.090;17.026;2022-12-29T06:20:35;7.78;;;3.67;;
66919;SDS011;53831;52.090;17.026;2022-12-29T06:21:38;11.88;;;5.70;;
66919;SDS011;53831;52.090;17.026;2022-12-29T06:22:39;13.80;;;6.07;;
66919;SDS011;53831;52.090;17.026;2022-12-29T06:24:41;13.07;;;5.47;;
66919;SDS011;53831;52.090;17.026;2022-12-29T06:25:42;8.00;;;4.13;;
66919;SDS011;53831;52.090;17.026;2022-12-29T06:26:43;7.65;;;3.45;;
66919;SDS011;53831;52.090;17.026;2022-12-29T06:27:43;7.05;;;3.63;;
66919;SDS011;53831;52.090;17.026;2022-12-29T06:28:44;8.63;;;4.03;;
66919;SDS011;53831;52.090;17.026;2022-12-29T06:29:45;8.95;;;4.03;;
66919;SDS011;53831;52.090;17.026;2022-12-29T06:30:46;8.20;;;4.00;;
66919;SDS011;53831;52.090;17.026;2022-12-29T06:31:48;8.13;;;3.80;;
66919;SDS011;53831;52.090;17.026;2022-12-29T06:32:51;8.60;;;4.15;;
66919;SDS011;53831;52.090;17.026;2022-12-29T06:33:53;7.95;;;4.20;;
66919;SDS011;53831;52.090;17.026;2022-12-29T06:34:53;8.32;;;4.38;;
66919;SDS011;53831;52.090;17.026;2022-12-29T06:35:54;9.25;;;4.22;;
66919;SDS011;53831;52.090;17.026;2022-12-29T06:36:54;8.50;;;4.40;;
66919;SDS011;53831;52.090;17.026;2022-12-29T06:37:55;7.28;;;3.67;;
66919;SDS011;53831;52.090;17.026;2022-12-29T06:38:56;8.20;;;3.78;;
66919;SDS011;53831;52.090;17.026;2022-12-29T06:39:58;9.93;;;4.55;;
66919;SDS011;53831;52.090;17.026;2022-12-29T06:41:04;10.95;;;4.78;;
66919;SDS011;53831;52.090;17.026;2022-12-29T06:42:23;10.05;;;4.70;;
66919;SDS011;53831;52.090;17.026;2022-12-29T06:43:42;8.25;;;4.32;;
66919;SDS011;53831;52.090;17.026;2022-12-29T06:44:54;8.77;;;4.50;;
66919;SDS011;53831;52.090;17.026;2022-12-29T06:45:58;8.52;;;4.20;;
66919;SDS011;53831;52.090;17.026;2022-12-29T06:46:59;8.02;;;4.10;;
66919;SDS011;53831;52.090;17.026;2022-12-29T06:47:59;8.05;;;4.10;;
66919;SDS011;53831;52.090;17.026;2022-12-29T06:49:00;9.82;;;3.80;;
66919;SDS011;53831;52.090;17.026;2022-12-29T06:50:01;7.95;;;3.90;;
66919;SDS011;53831;52.090;17.026;2022-12-29T06:51:02;7.95;;;3.95;;
66919;SDS011;53831;52.090;17.026;2022-12-29T06:52:03;9.20;;;4.70;;
66919;SDS011;53831;52.090;17.026;2022-12-29T06:53:04;9.68;;;4.25;;
66919;SDS011;53831;52.090;17.026;2022-12-29T06:54:05;8.35;;;4.40;;
66919;SDS011;53831;52.090;17.026;2022-12-29T06:55:06;8.98;;;4.68;;
66919;SDS011;53831;52.090;17.026;2022-12-29T06:56:07;13.02;;;6.07;;
66919;SDS011;53831;52.090;17.026;2022-12-29T06:57:08;16.92;;;6.88;;
66919;SDS011;53831;52.090;17.026;2022-12-29T06:58:08;17.73;;;8.05;;
66919;SDS011;53831;52.090;17.026;2022-12-29T06:59:09;16.38;;;7.05;;
66919;SDS011;53831;52.090;17.026;2022-12-29T07:00:10;15.45;;;7.25;;
66919;SDS011;53831;52.090;17.026;2022-12-29T07:01:11;18.50;;;7.68;;